createdAt,value
2022-08-10T00:01:55.744Z,10.57
2022-08-10T00:04:26.317Z,10.52
2022-08-10T00:06:56.432Z,10.40
2022-08-10T00:09:25.809Z,12.35
2022-08-10T00:11:54.664Z,12.60
2022-08-10T00:14:25.522Z,10.68
2022-08-10T00:16:54.369Z,13.50
2022-08-10T00:19:23.380Z,16.52
2022-08-10T00:21:53.754Z,16.13
2022-08-10T00:24:22.783Z,15.65
2022-08-10T00:28:01.749Z,16.05
2022-08-10T00:29:42.442Z,15.57
2022-08-10T00:32:14.655Z,13.95
2022-08-10T00:34:43.730Z,15.05
2022-08-10T00:37:17.248Z,12.95
2022-08-10T00:39:46.721Z,14.88
2022-08-10T00:42:17.213Z,12.80
2022-08-10T00:44:49.939Z,11.68
2022-08-10T00:47:36.710Z,14.20
2022-08-10T00:50:08.729Z,8.93
2022-08-10T00:52:41.208Z,14.63
2022-08-10T00:55:10.824Z,9.68
2022-08-10T00:57:40.754Z,7.50
2022-08-10T01:00:11.603Z,6.88
2022-08-10T01:02:40.709Z,7.63
2022-08-10T01:05:14.356Z,8.45
2022-08-10T01:08:27.099Z,6.78
2022-08-10T01:11:07.082Z,7.40
2022-08-10T01:14:06.498Z,6.22
2022-08-10T01:16:45.852Z,6.22
2022-08-10T01:19:39.363Z,5.57
2022-08-10T01:22:58.184Z,5.68
2022-08-10T01:26:12.538Z,5.20
2022-08-10T01:28:57.698Z,4.88
2022-08-10T01:31:38.829Z,4.25
2022-08-10T01:34:15.752Z,4.20
2022-08-10T01:36:53.524Z,4.28
2022-08-10T01:39:27.057Z,3.88
2022-08-10T01:42:02.499Z,4.20
2022-08-10T01:44:38.420Z,4.13
2022-08-10T01:47:32.722Z,3.95
2022-08-10T01:50:08.044Z,3.92
2022-08-10T01:52:43.003Z,4.80
2022-08-10T01:55:15.138Z,3.80
2022-08-10T01:57:46.859Z,3.80
2022-08-10T02:00:16.664Z,4.65
2022-08-10T02:02:51.173Z,5.00
2022-08-10T02:05:23.133Z,5.60
2022-08-10T02:07:53.067Z,4.35
2022-08-10T02:10:25.282Z,4.05
2022-08-10T02:12:58.233Z,4.50
2022-08-10T02:15:33.504Z,4.43
2022-08-10T02:18:11.238Z,5.13
2022-08-10T02:20:46.483Z,4.95
2022-08-10T02:23:20.564Z,4.65
2022-08-10T02:25:52.888Z,4.70
2022-08-10T02:28:30.732Z,4.25
2022-08-10T02:31:06.540Z,4.63
2022-08-10T02:33:56.802Z,4.28
2022-08-10T02:36:32.254Z,4.60
2022-08-10T02:39:06.201Z,4.35
2022-08-10T02:45:12.482Z,4.13
2022-08-10T02:45:21.693Z,4.30
2022-08-10T02:47:51.072Z,4.43
2022-08-10T02:50:29.334Z,4.63
2022-08-10T02:53:06.455Z,4.25
2022-08-10T02:55:44.006Z,5.20
2022-08-10T02:58:24.318Z,4.38
2022-08-10T03:00:57.560Z,4.82
2022-08-10T03:03:34.300Z,4.70
2022-08-10T03:06:12.013Z,5.07
2022-08-10T03:08:45.219Z,4.80
2022-08-10T03:12:36.072Z,5.03
2022-08-10T03:16:49.795Z,4.45
2022-08-10T03:20:33.463Z,5.03
2022-08-10T03:22:13.779Z,4.95
2022-08-10T03:24:45.246Z,5.50
2022-08-10T03:27:16.351Z,5.20
2022-08-10T03:30:29.881Z,5.53
2022-08-10T03:32:36.324Z,5.05
2022-08-10T03:35:08.959Z,5.40
2022-08-10T03:37:40.308Z,5.28
2022-08-10T03:40:10.859Z,5.13
2022-08-10T03:42:41.798Z,5.70
2022-08-10T03:45:12.059Z,5.35
2022-08-10T03:47:44.288Z,5.07
2022-08-10T03:50:45.532Z,4.93
2022-08-10T03:53:05.696Z,5.35
2022-08-10T03:56:28.529Z,6.00
2022-08-10T03:58:24.721Z,5.47
2022-08-10T04:00:54.533Z,5.43
2022-08-10T04:03:23.840Z,5.25
2022-08-10T04:05:59.399Z,5.00
2022-08-10T04:08:30.109Z,4.70
2022-08-10T04:10:59.111Z,5.25
2022-08-10T04:13:27.951Z,4.95
2022-08-10T04:15:56.897Z,4.70
2022-08-10T04:18:25.652Z,5.18
2022-08-10T04:21:02.290Z,5.15
2022-08-10T04:23:37.648Z,4.57
2022-08-10T04:26:07.250Z,5.65
2022-08-10T04:28:36.728Z,5.60
2022-08-10T04:31:09.048Z,5.97
2022-08-10T04:33:46.561Z,4.90
2022-08-10T04:36:18.053Z,5.15
2022-08-10T04:38:52.405Z,4.75
2022-08-10T04:41:22.499Z,4.65
2022-08-10T04:43:51.578Z,4.50
2022-08-10T04:46:55.764Z,4.45
2022-08-10T04:49:54.920Z,4.50
2022-08-10T04:52:04.791Z,5.95
2022-08-10T04:54:34.992Z,4.45
2022-08-10T04:57:04.433Z,4.97
2022-08-10T04:59:33.451Z,5.10
2022-08-10T05:02:28.101Z,5.30
2022-08-10T05:04:51.390Z,4.70
2022-08-10T05:07:20.427Z,4.40
2022-08-10T05:10:02.911Z,6.85
2022-08-10T05:12:37.414Z,4.97
2022-08-10T05:15:12.893Z,5.35
2022-08-10T05:18:06.825Z,4.93
2022-08-10T05:20:32.716Z,4.85
2022-08-10T05:23:01.531Z,5.10
2022-08-10T05:25:32.983Z,4.85
2022-08-10T05:28:07.387Z,4.65
2022-08-10T05:30:36.597Z,4.28
2022-08-10T05:33:08.783Z,4.22
2022-08-10T05:38:28.362Z,4.22
2022-08-10T05:40:59.154Z,4.22
2022-08-10T05:43:28.848Z,4.05
2022-08-10T05:46:19.566Z,4.40
2022-08-10T05:48:59.640Z,3.70
2022-08-10T05:51:30.930Z,4.80
2022-08-10T05:54:06.730Z,4.05
2022-08-10T05:56:56.421Z,3.83
2022-08-10T06:00:29.306Z,4.22
2022-08-10T06:02:41.704Z,4.40
2022-08-10T06:05:14.605Z,3.65
2022-08-10T06:10:19.699Z,3.40
2022-08-10T06:16:07.890Z,3.60
2022-08-10T06:18:38.252Z,3.97
2022-08-10T06:21:09.534Z,3.65
2022-08-10T06:23:40.111Z,3.53
2022-08-10T06:26:14.134Z,3.30
2022-08-10T06:28:56.940Z,4.00
2022-08-10T06:31:48.089Z,4.40
2022-08-10T06:34:25.447Z,3.70
2022-08-10T06:36:58.550Z,5.65
2022-08-10T06:39:36.465Z,5.43
2022-08-10T06:42:18.346Z,3.42
2022-08-10T06:45:01.590Z,3.42
2022-08-10T06:47:46.081Z,3.15
2022-08-10T06:50:35.124Z,3.47
2022-08-10T06:53:17.525Z,4.00
2022-08-10T06:55:56.843Z,4.93
2022-08-10T06:58:33.303Z,4.28
2022-08-10T07:01:08.087Z,7.47
2022-08-10T07:03:45.354Z,5.10
2022-08-10T07:06:20.336Z,6.35
2022-08-10T07:08:52.209Z,9.55
2022-08-10T07:11:23.992Z,8.40
2022-08-10T07:14:15.901Z,4.90
2022-08-10T07:19:19.921Z,3.70
2022-08-10T07:21:50.548Z,3.58
2022-08-10T07:24:29.086Z,7.38
2022-08-10T07:26:59.592Z,7.57
2022-08-10T07:29:54.060Z,2.53
2022-08-10T07:32:24.299Z,3.25
2022-08-10T07:34:57.163Z,2.30
2022-08-10T07:37:30.191Z,2.35
2022-08-10T07:40:04.186Z,4.57
2022-08-10T07:42:35.126Z,3.30
2022-08-10T07:45:06.149Z,5.82
2022-08-10T07:47:52.888Z,2.45
2022-08-10T07:50:26.650Z,2.63
2022-08-10T07:53:02.422Z,2.80
2022-08-10T07:56:05.316Z,6.15
2022-08-10T07:58:31.104Z,5.45
2022-08-10T08:01:02.225Z,2.30
2022-08-10T08:03:34.876Z,2.20
2022-08-10T08:06:12.095Z,3.22
2022-08-10T08:08:45.842Z,4.00
2022-08-10T08:11:26.202Z,2.42
2022-08-10T08:13:57.341Z,4.20
2022-08-10T08:16:27.258Z,3.10
2022-08-10T08:19:27.062Z,2.30
2022-08-10T08:24:10.787Z,2.35
2022-08-10T08:27:16.674Z,3.25
2022-08-10T08:29:49.168Z,3.78
2022-08-10T08:32:22.680Z,3.25
2022-08-10T08:34:58.244Z,3.00
2022-08-10T08:38:28.773Z,2.28
2022-08-10T08:40:27.438Z,2.60
2022-08-10T08:43:31.498Z,2.33
2022-08-10T08:46:41.304Z,2.28
2022-08-10T08:50:08.234Z,2.00
2022-08-10T08:52:42.780Z,2.20
2022-08-10T08:56:04.062Z,2.40
2022-08-10T08:59:07.054Z,2.83
2022-08-10T09:01:59.580Z,2.03
2022-08-10T09:04:57.276Z,1.90
2022-08-10T09:08:02.629Z,2.40
2022-08-10T09:10:44.344Z,2.10
2022-08-10T09:13:26.993Z,2.15
2022-08-10T09:16:25.636Z,2.15
2022-08-10T09:19:07.994Z,2.10
2022-08-10T09:21:58.597Z,2.10
2022-08-10T09:24:50.989Z,2.05
2022-08-10T09:27:23.848Z,2.00
2022-08-10T09:29:57.815Z,1.80
2022-08-10T09:36:13.563Z,2.00
2022-08-10T09:36:28.949Z,2.50
2022-08-10T09:38:53.051Z,2.35
2022-08-10T09:41:36.911Z,2.58
2022-08-10T09:44:14.814Z,2.28
2022-08-10T09:47:00.261Z,2.20
2022-08-10T09:49:54.434Z,2.65
2022-08-10T09:52:32.986Z,2.40
2022-08-10T09:55:13.949Z,2.35
2022-08-10T09:58:01.991Z,2.25
2022-08-10T10:00:36.575Z,2.70
2022-08-10T10:03:20.532Z,2.40
2022-08-10T10:05:57.639Z,2.15
2022-08-10T10:08:32.165Z,2.70
2022-08-10T10:11:16.229Z,2.60
2022-08-10T10:14:02.489Z,2.50
2022-08-10T10:16:52.988Z,2.50
2022-08-10T10:19:53.754Z,2.30
2022-08-10T10:22:44.441Z,2.30
2022-08-10T10:25:50.139Z,2.00
2022-08-10T10:29:07.011Z,2.33
2022-08-10T10:31:32.378Z,2.30
2022-08-10T10:34:15.052Z,2.20
2022-08-10T10:36:46.855Z,2.13
2022-08-10T10:39:23.948Z,1.90
2022-08-10T10:42:04.620Z,2.42
2022-08-10T10:44:53.727Z,2.00
2022-08-10T10:47:54.836Z,2.22
2022-08-10T10:50:32.475Z,2.10
2022-08-10T10:53:15.108Z,2.20
2022-08-10T10:56:14.182Z,2.97
2022-08-10T10:58:56.925Z,2.92
2022-08-10T11:01:39.499Z,2.33
2022-08-10T11:04:24.230Z,2.63
2022-08-10T11:07:11.263Z,2.55
2022-08-10T11:10:05.465Z,2.58
2022-08-10T11:12:50.963Z,3.40
2022-08-10T11:15:27.947Z,3.15
2022-08-10T11:18:04.962Z,3.08
2022-08-10T11:20:47.678Z,3.45
2022-08-10T11:23:27.293Z,3.42
2022-08-10T11:26:09.149Z,3.28
2022-08-10T11:28:47.489Z,3.90
2022-08-10T11:31:29.801Z,3.55
2022-08-10T11:34:47.857Z,3.58
2022-08-10T11:37:11.606Z,2.88
2022-08-10T11:39:52.418Z,3.63
2022-08-10T11:42:36.608Z,3.80
2022-08-10T11:45:13.145Z,4.00
2022-08-10T11:47:51.889Z,3.90
2022-08-10T11:50:29.463Z,4.13
2022-08-10T11:53:14.570Z,3.72
2022-08-10T11:55:50.223Z,4.05
2022-08-10T11:58:41.141Z,4.07
2022-08-10T12:01:16.263Z,3.13
2022-08-10T12:03:48.605Z,4.18
2022-08-10T12:06:53.826Z,2.42
2022-08-10T12:10:08.981Z,4.10
2022-08-10T12:12:04.392Z,2.70
2022-08-10T12:14:42.436Z,3.00
2022-08-10T12:17:18.141Z,2.97
2022-08-10T12:20:02.075Z,3.28
2022-08-10T12:22:42.439Z,2.45
2022-08-10T12:25:56.523Z,2.65
2022-08-10T12:28:15.744Z,1.95
2022-08-10T12:31:01.397Z,2.35
2022-08-10T12:34:01.464Z,2.00
2022-08-10T12:36:37.899Z,2.88
2022-08-10T12:39:16.108Z,1.80
2022-08-10T12:42:00.968Z,1.63
2022-08-10T12:44:42.250Z,1.80
2022-08-10T12:47:27.762Z,2.00
2022-08-10T12:50:31.095Z,1.80
2022-08-10T12:53:18.619Z,2.17
2022-08-10T12:55:51.555Z,1.67
2022-08-10T12:58:57.830Z,3.05
2022-08-10T13:01:16.982Z,1.80
2022-08-10T13:04:20.693Z,2.45
2022-08-10T13:09:13.992Z,2.00
2022-08-10T13:12:35.043Z,2.00
2022-08-10T13:14:50.786Z,1.70
2022-08-10T13:17:38.667Z,2.45
2022-08-10T13:20:19.317Z,1.90
2022-08-10T13:22:52.679Z,1.95
2022-08-10T13:25:29.829Z,1.67
2022-08-10T13:28:35.454Z,2.00
2022-08-10T13:30:58.281Z,1.90
2022-08-10T13:34:39.633Z,1.60
2022-08-10T13:36:28.965Z,2.03
2022-08-10T13:38:59.463Z,1.80
2022-08-10T13:41:31.412Z,1.83
2022-08-10T13:44:02.679Z,1.92
2022-08-10T13:49:07.801Z,1.90
2022-08-10T13:51:54.481Z,2.00
2022-08-10T13:54:37.258Z,2.22
2022-08-10T13:57:07.807Z,2.10
2022-08-10T14:00:34.596Z,1.80
2022-08-10T14:05:05.980Z,2.13
2022-08-10T14:08:00.127Z,2.05
2022-08-10T14:11:08.858Z,2.08
2022-08-10T14:13:28.733Z,2.33
2022-08-10T14:15:59.969Z,2.10
2022-08-10T14:18:36.438Z,1.98
2022-08-10T14:21:06.672Z,2.20
2022-08-10T14:23:42.332Z,1.85
2022-08-10T14:26:27.020Z,2.13
2022-08-10T14:29:04.275Z,2.10
2022-08-10T14:31:38.239Z,2.20
2022-08-10T14:34:10.956Z,2.30
2022-08-10T14:36:47.241Z,2.10
2022-08-10T14:39:27.241Z,2.30
2022-08-10T14:42:12.182Z,2.20
2022-08-10T14:44:58.157Z,2.25
2022-08-10T14:47:53.453Z,2.25
2022-08-10T14:50:31.401Z,2.28
2022-08-10T14:53:11.026Z,1.70
2022-08-10T14:55:57.592Z,1.88
2022-08-10T14:58:32.839Z,1.90
2022-08-10T15:01:07.003Z,1.92
2022-08-10T15:04:01.734Z,2.00
2022-08-10T15:06:41.874Z,1.83
2022-08-10T15:09:19.177Z,2.20
2022-08-10T15:12:15.203Z,1.80
2022-08-10T15:14:46.280Z,2.20
2022-08-10T15:17:26.367Z,2.10
2022-08-10T15:20:02.123Z,2.20
2022-08-10T15:22:49.865Z,1.88
2022-08-10T15:25:25.174Z,2.20
2022-08-10T15:28:05.791Z,2.08
2022-08-10T15:30:42.750Z,2.13
2022-08-10T15:34:03.043Z,1.98
2022-08-10T15:36:44.799Z,2.03
2022-08-10T15:40:21.893Z,1.98
2022-08-10T15:42:21.681Z,2.10
2022-08-10T15:44:55.087Z,2.08
2022-08-10T15:47:45.584Z,2.55
2022-08-10T15:50:23.138Z,2.30
2022-08-10T15:53:03.216Z,2.58
2022-08-10T15:55:45.205Z,2.58
2022-08-10T15:58:39.138Z,2.00
2022-08-10T16:02:14.908Z,2.75
2022-08-10T16:04:12.697Z,2.60
2022-08-10T16:06:47.825Z,2.50
2022-08-10T16:10:26.537Z,2.10
2022-08-10T16:12:29.187Z,2.10
2022-08-10T16:15:07.921Z,2.00
2022-08-10T16:17:55.678Z,2.50
2022-08-10T16:20:53.052Z,2.40
2022-08-10T16:23:29.841Z,2.47
2022-08-10T16:26:14.613Z,2.00
2022-08-10T16:28:52.307Z,1.80
2022-08-10T16:31:25.510Z,2.20
2022-08-10T16:33:59.488Z,2.00
2022-08-10T16:36:39.248Z,1.98
2022-08-10T16:39:16.347Z,2.65
2022-08-10T16:42:05.955Z,2.10
2022-08-10T16:44:42.418Z,2.33
2022-08-10T16:47:13.911Z,2.33
2022-08-10T16:49:44.773Z,2.42
2022-08-10T16:52:16.817Z,1.98
2022-08-10T16:54:50.547Z,2.00
2022-08-10T16:57:22.238Z,2.13
2022-08-10T16:59:57.198Z,2.08
2022-08-10T17:02:28.544Z,1.95
2022-08-10T17:04:59.617Z,2.17
2022-08-10T17:07:30.870Z,2.20
2022-08-10T17:10:07.701Z,2.38
2022-08-10T17:12:41.145Z,2.60
2022-08-10T17:15:12.689Z,2.38
2022-08-10T17:17:46.983Z,2.83
2022-08-10T17:20:30.563Z,2.90
2022-08-10T17:23:10.745Z,3.75
2022-08-10T17:25:48.746Z,4.05
2022-08-10T17:28:34.748Z,3.95
2022-08-10T17:31:24.224Z,5.07
2022-08-10T17:34:14.585Z,3.80
2022-08-10T17:36:47.782Z,3.20
2022-08-10T17:39:22.770Z,3.55
2022-08-10T17:41:55.875Z,3.40
2022-08-10T17:44:26.849Z,2.50
2022-08-10T17:46:57.942Z,2.35
2022-08-10T17:49:28.512Z,2.45
2022-08-10T17:52:02.638Z,2.35
2022-08-10T17:54:34.516Z,2.35
2022-08-10T17:57:09.261Z,2.00
2022-08-10T17:59:40.537Z,2.08
2022-08-10T18:02:15.772Z,2.88
2022-08-10T18:04:51.809Z,3.05
2022-08-10T18:07:29.148Z,2.78
2022-08-10T18:10:01.444Z,2.05
2022-08-10T18:12:40.683Z,2.03
2022-08-10T18:15:15.668Z,3.17
2022-08-10T18:17:52.488Z,2.20
2022-08-10T18:20:27.840Z,2.45
2022-08-10T18:23:00.005Z,2.10
2022-08-10T18:25:35.485Z,2.17
2022-08-10T18:28:07.893Z,2.60
2022-08-10T18:30:48.003Z,2.05
2022-08-10T18:33:24.855Z,2.40
2022-08-10T18:35:56.478Z,2.47
2022-08-10T18:38:35.300Z,3.10
2022-08-10T18:41:09.953Z,3.10
2022-08-10T18:44:06.374Z,4.22
2022-08-10T18:46:45.141Z,3.70
2022-08-10T18:49:29.953Z,2.45
2022-08-10T18:52:04.617Z,2.45
2022-08-10T18:54:45.227Z,2.60
2022-08-10T18:57:33.266Z,2.90
2022-08-10T19:00:10.691Z,3.13
2022-08-10T19:03:05.311Z,3.30
2022-08-10T19:05:57.948Z,3.13
2022-08-10T19:09:08.593Z,3.22
2022-08-10T19:12:29.927Z,3.00
2022-08-10T19:15:17.288Z,2.70
2022-08-10T19:18:07.268Z,2.50
2022-08-10T19:20:49.484Z,2.40
2022-08-10T19:23:43.164Z,2.72
2022-08-10T19:26:42.072Z,2.75
2022-08-10T19:30:11.326Z,2.83
2022-08-10T19:32:32.871Z,3.15
2022-08-10T19:35:12.090Z,2.90
2022-08-10T19:38:01.391Z,2.70
2022-08-10T19:40:44.258Z,3.33
2022-08-10T19:43:59.236Z,3.05
2022-08-10T19:46:28.642Z,2.80
2022-08-10T19:49:08.445Z,2.72
2022-08-10T19:51:52.726Z,3.10
2022-08-10T19:54:34.923Z,3.10
2022-08-10T20:00:17.559Z,3.17
2022-08-10T20:03:03.852Z,2.88
2022-08-10T20:06:18.200Z,2.90
2022-08-10T20:08:51.765Z,2.67
2022-08-10T20:11:44.601Z,3.20
2022-08-10T20:14:23.462Z,3.97
2022-08-10T20:16:59.679Z,3.90
2022-08-10T20:19:53.460Z,3.53
2022-08-10T20:22:30.172Z,3.33
2022-08-10T20:25:07.847Z,3.22
2022-08-10T20:28:00.564Z,2.83
2022-08-10T20:30:35.607Z,2.70
2022-08-10T20:33:13.145Z,3.10
2022-08-10T20:35:53.301Z,5.25
2022-08-10T20:38:33.640Z,4.68
2022-08-10T20:41:23.199Z,4.82
2022-08-10T20:44:13.832Z,4.07
2022-08-10T20:46:54.381Z,3.75
2022-08-10T20:49:37.264Z,3.72
2022-08-10T20:52:08.335Z,4.13
2022-08-10T20:54:46.086Z,4.10
2022-08-10T20:58:07.592Z,4.97
2022-08-10T21:00:51.931Z,4.68
2022-08-10T21:03:54.027Z,5.57
2022-08-10T21:06:52.707Z,5.72
2022-08-10T21:09:39.578Z,6.22
2022-08-10T21:12:49.940Z,6.97
2022-08-10T21:15:48.621Z,7.72
2022-08-10T21:18:44.614Z,8.32
2022-08-10T21:21:57.061Z,9.57
2022-08-10T21:24:36.636Z,9.35
2022-08-10T21:27:36.198Z,7.32
2022-08-10T21:30:09.872Z,7.50
2022-08-10T21:32:54.493Z,7.18
2022-08-10T21:35:37.360Z,5.72
2022-08-10T21:38:21.333Z,4.85
2022-08-10T21:45:13.406Z,4.43
2022-08-10T21:48:20.657Z,3.55
2022-08-10T21:52:00.737Z,3.65
2022-08-10T21:54:43.689Z,3.92
2022-08-10T21:57:43.171Z,3.78
2022-08-10T22:00:33.711Z,3.70
2022-08-10T22:03:24.375Z,3.72
2022-08-10T22:06:15.083Z,5.28
2022-08-10T22:09:06.733Z,3.90
2022-08-10T22:12:08.116Z,3.95
2022-08-10T22:14:57.355Z,3.72
2022-08-10T22:21:04.848Z,3.92
2022-08-10T22:24:16.715Z,3.60
2022-08-10T22:27:46.365Z,3.78
2022-08-10T22:30:35.833Z,3.95
2022-08-10T22:31:25.113Z,4.47
2022-08-10T22:31:25.967Z,4.07
2022-08-10T22:33:44.706Z,3.65
2022-08-10T22:37:09.744Z,4.03
2022-08-10T22:40:20.210Z,3.70
2022-08-10T22:43:11.990Z,3.53
2022-08-10T22:49:02.329Z,5.78
2022-08-10T22:51:55.539Z,5.03
2022-08-10T22:54:51.748Z,7.28
2022-08-10T22:57:39.233Z,6.00
2022-08-10T23:00:17.138Z,5.10
2022-08-10T23:02:58.846Z,5.40
2022-08-10T23:05:34.675Z,5.40
2022-08-10T23:08:30.565Z,5.95
2022-08-10T23:11:07.529Z,5.60
2022-08-10T23:13:42.966Z,5.43
2022-08-10T23:16:37.525Z,5.75
2022-08-10T23:19:18.661Z,5.88
2022-08-10T23:22:04.479Z,5.90
2022-08-10T23:24:40.617Z,5.70
2022-08-10T23:27:38.797Z,6.30
2022-08-10T23:30:10.479Z,5.85
2022-08-10T23:32:43.695Z,6.03
2022-08-10T23:36:05.681Z,5.57
2022-08-10T23:38:09.460Z,6.32
2022-08-10T23:40:45.245Z,6.00
2022-08-10T23:43:20.202Z,5.90
2022-08-10T23:45:55.092Z,5.82
2022-08-10T23:48:28.305Z,5.80
2022-08-10T23:51:01.472Z,5.28
2022-08-10T23:53:36.426Z,5.55
2022-08-10T23:56:20.983Z,4.65
2022-08-10T23:58:55.649Z,5.28
